createdAt,value
2022-11-22T00:00:21.052Z,9.27
2022-11-22T00:02:47.633Z,10.10
2022-11-22T00:05:14.338Z,11.68
2022-11-22T00:07:41.174Z,8.43
2022-11-22T00:10:10.625Z,9.90
2022-11-22T00:12:37.459Z,8.32
2022-11-22T00:15:05.051Z,7.78
2022-11-22T00:17:32.494Z,10.85
2022-11-22T00:19:59.108Z,7.57
2022-11-22T00:22:25.944Z,10.60
2022-11-22T00:24:53.077Z,7.35
2022-11-22T00:27:20.242Z,8.25
2022-11-22T00:29:46.807Z,10.32
2022-11-22T00:32:13.929Z,9.32
2022-11-22T00:34:40.579Z,6.75
2022-11-22T00:37:07.166Z,8.93
2022-11-22T00:39:33.833Z,9.95
2022-11-22T00:42:00.597Z,12.07
2022-11-22T00:44:27.158Z,13.05
2022-11-22T00:46:54.354Z,10.80
2022-11-22T00:49:20.980Z,8.88
2022-11-22T00:51:47.705Z,9.60
2022-11-22T00:54:14.302Z,8.45
2022-11-22T00:56:40.897Z,9.88
2022-11-22T00:59:07.489Z,10.18
2022-11-22T01:01:34.168Z,7.97
2022-11-22T01:04:00.745Z,9.90
2022-11-22T01:06:27.397Z,9.20
2022-11-22T01:08:54.065Z,8.88
2022-11-22T01:11:20.750Z,9.05
2022-11-22T01:13:47.476Z,11.48
2022-11-22T01:16:15.036Z,13.85
2022-11-22T01:18:41.674Z,11.00
2022-11-22T01:21:08.829Z,7.63
2022-11-22T01:23:35.881Z,9.32
2022-11-22T01:26:03.427Z,11.93
2022-11-22T01:28:30.043Z,12.88
2022-11-22T01:30:56.586Z,13.18
2022-11-22T01:33:23.258Z,9.05
2022-11-22T01:35:50.018Z,11.43
2022-11-22T01:38:16.704Z,12.48
2022-11-22T01:40:43.398Z,7.05
2022-11-22T01:43:27.559Z,7.80
2022-11-22T01:46:03.822Z,12.18
2022-11-22T01:48:51.486Z,9.68
2022-11-22T01:51:27.327Z,7.72
2022-11-22T01:53:58.558Z,13.38
2022-11-22T01:56:27.992Z,10.20
2022-11-22T01:58:58.727Z,10.48
2022-11-22T02:01:25.887Z,8.27
2022-11-22T02:03:55.159Z,8.48
2022-11-22T02:06:23.050Z,12.88
2022-11-22T02:09:03.511Z,12.60
2022-11-22T02:11:34.062Z,14.63
2022-11-22T02:14:02.345Z,15.25
2022-11-22T02:16:29.246Z,10.15
2022-11-22T02:18:55.977Z,12.20
2022-11-22T02:21:22.770Z,10.55
2022-11-22T02:24:04.962Z,12.77
2022-11-22T02:26:32.301Z,8.98
2022-11-22T02:29:03.937Z,13.10
2022-11-22T02:31:45.117Z,10.37
2022-11-22T02:34:13.359Z,12.20
2022-11-22T02:36:45.519Z,9.27
2022-11-22T02:39:15.851Z,8.80
2022-11-22T02:41:43.904Z,11.98
2022-11-22T02:44:11.909Z,7.05
2022-11-22T02:46:50.818Z,7.70
2022-11-22T02:49:19.557Z,7.05
2022-11-22T02:51:46.689Z,11.90
2022-11-22T02:54:13.586Z,9.02
2022-11-22T02:56:40.185Z,9.60
2022-11-22T02:59:06.770Z,11.75
2022-11-22T03:01:33.910Z,11.82
2022-11-22T03:04:00.565Z,14.27
2022-11-22T03:06:27.286Z,8.80
2022-11-22T03:08:56.619Z,8.07
2022-11-22T03:11:24.193Z,5.75
2022-11-22T03:13:50.989Z,11.65
2022-11-22T03:16:17.649Z,10.70
2022-11-22T03:18:44.257Z,11.07
2022-11-22T03:21:10.859Z,11.38
2022-11-22T03:23:37.454Z,7.05
2022-11-22T03:26:11.511Z,9.82
2022-11-22T03:28:38.494Z,10.98
2022-11-22T03:31:06.838Z,11.75
2022-11-22T03:33:34.607Z,13.63
2022-11-22T03:36:01.257Z,11.70
2022-11-22T03:38:27.813Z,11.23
2022-11-22T03:40:54.426Z,8.40
2022-11-22T03:43:24.617Z,14.88
2022-11-22T03:45:51.303Z,12.07
2022-11-22T03:48:18.389Z,9.88
2022-11-22T03:50:45.096Z,3.83
2022-11-22T03:53:12.462Z,7.68
2022-11-22T03:55:39.385Z,10.65
2022-11-22T03:58:06.729Z,7.43
2022-11-22T04:00:34.353Z,9.75
2022-11-22T04:03:00.999Z,11.95
2022-11-22T04:05:27.906Z,12.38
2022-11-22T04:07:57.113Z,7.30
2022-11-22T04:10:24.884Z,12.45
2022-11-22T04:12:51.809Z,13.95
2022-11-22T04:15:18.597Z,12.02
2022-11-22T04:17:45.829Z,11.65
2022-11-22T04:20:33.629Z,7.93
2022-11-22T04:23:04.342Z,6.80
2022-11-22T04:25:33.331Z,15.20
2022-11-22T04:28:00.494Z,15.13
2022-11-22T04:30:47.124Z,10.27
2022-11-22T04:33:14.924Z,10.48
2022-11-22T04:35:43.022Z,14.02
2022-11-22T04:38:09.935Z,9.75
2022-11-22T04:40:37.310Z,11.82
2022-11-22T04:43:23.321Z,7.20
2022-11-22T04:45:50.029Z,11.45
2022-11-22T04:48:16.986Z,6.28
2022-11-22T04:51:16.229Z,6.35
2022-11-22T04:53:44.415Z,9.65
2022-11-22T04:56:11.703Z,15.52
2022-11-22T04:58:38.409Z,12.60
2022-11-22T05:01:05.237Z,12.93
2022-11-22T05:03:32.162Z,9.45
2022-11-22T05:06:05.444Z,10.75
2022-11-22T05:08:32.068Z,9.30
2022-11-22T05:10:59.299Z,14.75
2022-11-22T05:13:32.758Z,8.65
2022-11-22T05:16:00.749Z,5.30
2022-11-22T05:18:28.341Z,14.18
2022-11-22T05:20:55.102Z,8.93
2022-11-22T05:23:41.381Z,9.32
2022-11-22T05:26:09.309Z,13.35
2022-11-22T05:28:37.661Z,8.93
2022-11-22T05:31:13.229Z,9.75
2022-11-22T05:33:41.772Z,9.77
2022-11-22T05:36:09.304Z,10.85
2022-11-22T05:38:37.747Z,8.23
2022-11-22T05:41:06.474Z,13.98
2022-11-22T05:43:33.522Z,13.95
2022-11-22T05:46:23.552Z,8.18
2022-11-22T05:48:51.271Z,4.10
2022-11-22T05:51:20.571Z,5.65
2022-11-22T05:53:47.654Z,8.48
2022-11-22T05:56:16.788Z,13.25
2022-11-22T05:58:44.108Z,10.60
2022-11-22T06:01:13.354Z,9.95
2022-11-22T06:03:40.026Z,9.30
2022-11-22T06:06:07.625Z,8.15
2022-11-22T06:08:36.918Z,9.77
2022-11-22T06:11:20.480Z,15.70
2022-11-22T06:13:48.871Z,14.18
2022-11-22T06:16:16.365Z,16.25
2022-11-22T06:18:43.637Z,11.95
2022-11-22T06:21:13.094Z,13.60
2022-11-22T06:23:39.747Z,10.88
2022-11-22T06:26:13.406Z,8.95
2022-11-22T06:28:40.390Z,11.25
2022-11-22T06:31:11.109Z,9.98
2022-11-22T06:33:38.603Z,3.80
2022-11-22T06:36:09.538Z,10.88
2022-11-22T06:38:36.612Z,6.53
2022-11-22T06:41:05.548Z,7.63
2022-11-22T06:43:33.419Z,8.25
2022-11-22T06:46:01.609Z,10.68
2022-11-22T06:48:33.806Z,9.57
2022-11-22T06:51:01.647Z,6.18
2022-11-22T06:53:46.848Z,10.20
2022-11-22T06:56:22.358Z,10.02
2022-11-22T06:58:50.676Z,9.48
2022-11-22T07:01:23.474Z,8.73
2022-11-22T07:03:51.052Z,10.27
2022-11-22T07:06:19.319Z,9.85
2022-11-22T07:08:46.837Z,11.45
2022-11-22T07:11:25.841Z,7.15
2022-11-22T07:13:53.939Z,8.50
2022-11-22T07:16:21.684Z,9.55
2022-11-22T07:18:48.825Z,10.05
2022-11-22T07:21:23.710Z,10.15
2022-11-22T07:23:53.430Z,9.57
2022-11-22T07:26:21.704Z,11.68
2022-11-22T07:28:48.633Z,7.72
2022-11-22T07:31:16.775Z,9.43
2022-11-22T07:33:44.341Z,15.13
2022-11-22T07:36:16.564Z,7.18
2022-11-22T07:38:43.572Z,11.98
2022-11-22T07:41:10.379Z,11.35
2022-11-22T07:43:37.570Z,6.40
2022-11-22T07:46:07.807Z,14.25
2022-11-22T07:48:34.830Z,6.93
2022-11-22T07:51:05.791Z,10.70
2022-11-22T07:53:32.839Z,9.40
2022-11-22T07:56:06.705Z,7.43
2022-11-22T07:58:34.924Z,9.27
2022-11-22T08:01:06.769Z,9.93
2022-11-22T08:03:33.690Z,7.68
2022-11-22T08:06:01.564Z,8.00
2022-11-22T08:08:28.667Z,12.52
2022-11-22T08:10:55.802Z,8.80
2022-11-22T08:13:22.819Z,7.25
2022-11-22T08:15:50.808Z,10.75
2022-11-22T08:18:18.941Z,6.97
2022-11-22T08:20:45.588Z,8.95
2022-11-22T08:23:12.204Z,11.40
2022-11-22T08:25:41.124Z,13.40
2022-11-22T08:28:07.747Z,6.05
2022-11-22T08:30:34.322Z,9.65
2022-11-22T08:33:00.890Z,8.52
2022-11-22T08:35:27.550Z,9.57
2022-11-22T08:37:57.704Z,9.65
2022-11-22T08:40:24.533Z,11.73
2022-11-22T08:42:54.732Z,5.18
2022-11-22T08:45:21.454Z,8.55
2022-11-22T08:47:49.002Z,10.23
2022-11-22T08:50:17.035Z,5.97
2022-11-22T08:52:43.627Z,9.88
2022-11-22T08:55:10.255Z,12.95
2022-11-22T08:57:36.863Z,5.72
2022-11-22T09:00:05.314Z,6.03
2022-11-22T09:02:32.083Z,11.10
2022-11-22T09:04:58.823Z,6.18
2022-11-22T09:10:12.258Z,8.95
2022-11-22T09:12:38.849Z,12.65
2022-11-22T09:15:05.922Z,6.78
2022-11-22T09:17:32.504Z,8.48
2022-11-22T09:19:59.093Z,7.72
2022-11-22T09:22:28.596Z,10.27
2022-11-22T09:24:55.369Z,8.95
2022-11-22T09:27:21.968Z,9.40
2022-11-22T09:29:48.610Z,11.35
2022-11-22T09:32:15.339Z,9.75
2022-11-22T09:34:42.121Z,7.55
2022-11-22T09:37:08.722Z,11.85
2022-11-22T09:39:35.367Z,6.93
2022-11-22T09:42:22.417Z,9.73
2022-11-22T09:45:40.441Z,10.07
2022-11-22T09:48:36.121Z,8.73
2022-11-22T09:51:09.400Z,10.00
2022-11-22T09:53:52.995Z,14.55
2022-11-22T09:56:24.665Z,6.95
2022-11-22T09:59:05.307Z,9.27
2022-11-22T10:01:42.884Z,7.25
2022-11-22T10:04:40.157Z,7.85
2022-11-22T10:07:15.670Z,9.10
2022-11-22T10:09:56.110Z,10.05
2022-11-22T10:12:55.085Z,11.05
2022-11-22T10:15:48.754Z,9.20
2022-11-22T10:18:29.790Z,8.02
2022-11-22T10:20:56.397Z,10.10
2022-11-22T10:23:24.850Z,10.93
2022-11-22T10:26:01.396Z,7.15
2022-11-22T10:28:34.103Z,5.68
2022-11-22T10:31:17.798Z,7.68
2022-11-22T10:34:03.128Z,8.45
2022-11-22T10:36:56.982Z,7.93
2022-11-22T10:40:01.110Z,8.27
2022-11-22T10:42:46.133Z,8.13
2022-11-22T10:45:29.594Z,12.90
2022-11-22T10:48:28.543Z,7.82
2022-11-22T10:51:21.597Z,7.13
2022-11-22T10:53:50.993Z,7.10
2022-11-22T10:56:23.813Z,10.68
2022-11-22T10:59:20.423Z,6.05
2022-11-22T11:01:52.456Z,4.50
2022-11-22T11:04:20.041Z,7.43
2022-11-22T11:07:10.951Z,8.18
2022-11-22T11:12:43.033Z,4.95
2022-11-22T11:15:29.134Z,7.55
2022-11-22T11:18:02.095Z,8.13
2022-11-22T11:20:35.061Z,11.00
2022-11-22T11:23:17.043Z,7.20
2022-11-22T11:25:45.708Z,6.10
2022-11-22T11:28:27.373Z,7.07
2022-11-22T11:31:09.118Z,3.77
2022-11-22T11:33:38.456Z,5.93
2022-11-22T11:36:16.455Z,7.38
2022-11-22T11:38:42.969Z,6.70
2022-11-22T11:41:28.182Z,5.00
2022-11-22T11:44:02.977Z,5.82
2022-11-22T11:46:45.093Z,5.53
2022-11-22T11:49:23.954Z,4.75
2022-11-22T11:52:01.282Z,4.82
2022-11-22T11:54:41.630Z,5.45
2022-11-22T11:57:36.293Z,4.53
2022-11-22T12:00:06.091Z,4.55
2022-11-22T12:02:39.917Z,6.70
2022-11-22T12:05:12.753Z,1.92
2022-11-22T12:07:46.046Z,9.40
2022-11-22T12:10:35.780Z,4.63
2022-11-22T12:13:51.742Z,3.58
2022-11-22T12:16:26.268Z,4.13
2022-11-22T12:19:11.454Z,5.35
2022-11-22T12:21:49.999Z,3.17
2022-11-22T12:24:52.211Z,5.60
2022-11-22T12:27:21.842Z,6.88
2022-11-22T12:29:48.697Z,3.58
2022-11-22T12:32:30.587Z,6.85
2022-11-22T12:35:11.286Z,4.00
2022-11-22T12:37:49.606Z,4.43
2022-11-22T12:40:40.766Z,4.85
2022-11-22T12:43:18.107Z,3.88
2022-11-22T12:45:51.117Z,5.57
2022-11-22T12:48:48.355Z,5.55
2022-11-22T12:51:42.571Z,3.58
2022-11-22T12:54:19.904Z,5.20
2022-11-22T12:56:51.354Z,2.13
2022-11-22T12:59:35.088Z,3.83
2022-11-22T13:02:25.893Z,3.55
2022-11-22T13:05:15.313Z,6.65
2022-11-22T13:08:16.754Z,4.88
2022-11-22T13:11:14.010Z,7.07
2022-11-22T13:13:48.022Z,4.13
2022-11-22T13:16:15.025Z,4.70
2022-11-22T13:18:50.219Z,3.40
2022-11-22T13:21:43.582Z,4.25
2022-11-22T13:24:22.565Z,3.17
2022-11-22T13:26:55.205Z,3.60
2022-11-22T13:29:27.141Z,4.78
2022-11-22T13:32:08.342Z,3.80
2022-11-22T13:34:38.047Z,4.22
2022-11-22T13:37:12.590Z,3.80
2022-11-22T13:39:48.587Z,3.30
2022-11-22T13:42:19.626Z,4.50
2022-11-22T13:44:56.431Z,4.45
2022-11-22T13:47:23.014Z,4.68
2022-11-22T13:49:50.485Z,2.78
2022-11-22T13:52:17.063Z,4.47
2022-11-22T13:54:46.807Z,4.15
2022-11-22T13:57:36.773Z,3.25
2022-11-22T14:00:29.196Z,4.53
2022-11-22T14:03:20.698Z,4.85
2022-11-22T14:05:56.756Z,7.25
2022-11-22T14:08:41.317Z,2.67
2022-11-22T14:11:30.860Z,2.83
2022-11-22T14:14:06.594Z,2.88
2022-11-22T14:16:50.280Z,1.95
2022-11-22T14:19:31.839Z,3.95
2022-11-22T14:22:39.346Z,1.77
2022-11-22T14:25:15.774Z,4.78
2022-11-22T14:28:01.777Z,3.42
2022-11-22T14:30:43.874Z,5.75
2022-11-22T14:33:16.840Z,2.85
2022-11-22T14:36:08.053Z,1.83
2022-11-22T14:38:36.789Z,1.80
2022-11-22T14:41:28.019Z,4.47
2022-11-22T14:44:31.949Z,3.78
2022-11-22T14:47:05.922Z,2.28
2022-11-22T14:49:45.786Z,3.83
2022-11-22T14:52:25.123Z,2.83
2022-11-22T14:55:01.642Z,2.88
2022-11-22T14:57:31.805Z,3.13
2022-11-22T15:00:24.348Z,2.08
2022-11-22T15:03:19.617Z,3.08
2022-11-22T15:09:12.523Z,2.20
2022-11-22T15:12:42.038Z,2.03
2022-11-22T15:59:41.691Z,2.42
2022-11-22T16:02:29.620Z,3.20
2022-11-22T16:06:08.552Z,3.13
2022-11-22T16:07:52.713Z,3.33
2022-11-22T16:10:33.436Z,3.63
2022-11-22T16:13:14.137Z,5.55
2022-11-22T16:15:41.009Z,7.07
2022-11-22T16:18:10.351Z,3.55
2022-11-22T16:20:39.213Z,4.40
2022-11-22T16:23:19.938Z,4.13
2022-11-22T16:25:52.693Z,3.35
2022-11-22T16:28:24.240Z,2.90
2022-11-22T16:30:52.997Z,4.33
2022-11-22T16:33:19.588Z,3.20
2022-11-22T16:35:46.273Z,3.90
2022-11-22T16:38:12.903Z,2.90
2022-11-22T16:40:43.379Z,3.20
2022-11-22T16:43:33.934Z,2.80
2022-11-22T16:46:01.245Z,3.20
2022-11-22T16:48:33.066Z,3.63
2022-11-22T16:53:41.625Z,2.58
2022-11-22T16:56:10.176Z,5.95
2022-11-22T16:58:36.805Z,3.22
2022-11-22T17:01:03.485Z,4.72
2022-11-22T17:03:33.649Z,3.55
2022-11-22T17:06:01.365Z,5.78
2022-11-22T17:08:27.913Z,5.20
2022-11-22T17:10:54.750Z,3.38
2022-11-22T17:13:25.440Z,4.43
2022-11-22T17:15:56.728Z,3.50
2022-11-22T17:18:23.289Z,3.95
2022-11-22T17:20:50.141Z,5.10
2022-11-22T17:23:39.265Z,4.03
2022-11-22T17:26:06.083Z,3.95
2022-11-22T17:28:32.714Z,4.68
2022-11-22T17:31:00.115Z,3.60
2022-11-22T17:33:26.709Z,5.68
2022-11-22T17:35:53.722Z,4.65
2022-11-22T17:38:20.350Z,5.40
2022-11-22T17:40:47.153Z,3.88
2022-11-22T17:43:13.722Z,4.90
2022-11-22T17:45:43.881Z,3.80
2022-11-22T17:48:11.685Z,5.97
2022-11-22T17:50:41.144Z,6.57
2022-11-22T17:53:07.712Z,6.65
2022-11-22T17:55:48.417Z,5.55
2022-11-22T17:58:21.070Z,4.82
2022-11-22T18:00:47.687Z,8.05
2022-11-22T18:03:14.398Z,5.43
2022-11-22T18:05:41.037Z,5.88
2022-11-22T18:08:07.642Z,4.82
2022-11-22T18:10:34.240Z,7.68
2022-11-22T18:13:20.166Z,4.63
2022-11-22T18:15:53.955Z,4.43
2022-11-22T18:18:54.694Z,5.72
2022-11-22T18:21:14.101Z,7.22
2022-11-22T18:23:43.553Z,6.43
2022-11-22T18:29:35.135Z,5.65
2022-11-22T18:31:53.913Z,7.60
2022-11-22T18:34:21.704Z,7.13
2022-11-22T18:39:38.579Z,6.25
2022-11-22T18:42:08.348Z,5.32
2022-11-22T18:44:34.954Z,6.18
2022-11-22T18:47:01.722Z,7.00
2022-11-22T18:49:28.298Z,4.95
2022-11-22T18:51:55.619Z,7.78
2022-11-22T18:54:22.732Z,4.80
2022-11-22T18:56:52.743Z,6.60
2022-11-22T18:59:19.605Z,4.75
2022-11-22T19:01:46.436Z,4.13
2022-11-22T19:04:14.550Z,5.45
2022-11-22T19:06:42.187Z,6.13
2022-11-22T19:09:09.445Z,7.85
2022-11-22T19:11:36.214Z,4.47
2022-11-22T19:14:03.192Z,5.10
2022-11-22T19:16:30.369Z,5.63
2022-11-22T19:18:58.278Z,5.53
2022-11-22T19:21:27.589Z,5.43
2022-11-22T19:23:54.955Z,4.88
2022-11-22T19:26:23.841Z,5.60
2022-11-22T19:28:54.967Z,5.30
2022-11-22T19:31:23.746Z,8.75
2022-11-22T19:33:50.509Z,5.75
2022-11-22T19:36:19.578Z,7.88
2022-11-22T19:38:46.588Z,7.47
2022-11-22T19:41:16.955Z,7.68
2022-11-22T19:43:44.030Z,5.72
2022-11-22T19:46:10.900Z,6.00
2022-11-22T19:48:42.365Z,6.97
2022-11-22T19:51:14.559Z,6.18
2022-11-22T19:53:42.108Z,6.93
2022-11-22T19:56:13.702Z,6.50
2022-11-22T19:58:40.349Z,5.10
2022-11-22T20:01:12.527Z,8.48
2022-11-22T20:03:40.891Z,6.40
2022-11-22T20:06:09.006Z,6.75
2022-11-22T20:08:36.180Z,9.27
2022-11-22T20:11:09.793Z,6.97
2022-11-22T20:13:38.743Z,8.02
2022-11-22T20:16:25.670Z,4.18
2022-11-22T20:18:53.659Z,9.93
2022-11-22T20:21:22.270Z,8.60
2022-11-22T20:23:50.348Z,7.90
2022-11-22T20:26:18.783Z,6.78
2022-11-22T20:28:46.266Z,8.60
2022-11-22T20:31:14.779Z,8.20
2022-11-22T20:33:43.639Z,6.85
2022-11-22T20:36:30.421Z,11.02
2022-11-22T20:38:57.841Z,9.75
2022-11-22T20:41:28.571Z,9.80
2022-11-22T20:43:55.417Z,9.63
2022-11-22T20:46:24.474Z,10.13
2022-11-22T20:48:54.482Z,9.88
2022-11-22T20:51:27.952Z,9.77
2022-11-22T20:53:55.678Z,9.10
2022-11-22T20:56:22.603Z,10.48
2022-11-22T20:58:49.599Z,6.30
2022-11-22T21:01:25.100Z,10.38
2022-11-22T21:03:53.030Z,11.15
2022-11-22T21:06:21.530Z,10.52
2022-11-22T21:08:48.593Z,7.00
2022-11-22T21:11:23.776Z,11.13
2022-11-22T21:13:51.232Z,9.48
2022-11-22T21:16:23.863Z,13.63
2022-11-22T21:18:55.551Z,7.78
2022-11-22T21:21:23.474Z,7.13
2022-11-22T21:23:55.620Z,9.40
2022-11-22T21:26:24.127Z,9.68
2022-11-22T21:28:50.991Z,10.52
2022-11-22T21:31:18.697Z,13.57
2022-11-22T21:33:45.805Z,12.00
2022-11-22T21:36:12.998Z,8.90
2022-11-22T21:38:39.734Z,9.73
2022-11-22T21:44:01.702Z,11.05
2022-11-22T21:46:28.398Z,6.53
2022-11-22T21:48:55.908Z,7.57
2022-11-22T21:51:25.618Z,7.60
2022-11-22T21:53:55.481Z,9.52
2022-11-22T21:56:22.253Z,7.10
2022-11-22T21:58:49.824Z,6.32
2022-11-22T22:01:16.475Z,8.85
2022-11-22T22:03:43.180Z,9.30
2022-11-22T22:06:12.009Z,9.02
2022-11-22T22:08:40.485Z,11.00
2022-11-22T22:11:07.418Z,9.55
2022-11-22T22:13:34.110Z,9.27
2022-11-22T22:16:12.893Z,8.57
2022-11-22T22:18:39.544Z,8.98
2022-11-22T22:21:11.940Z,7.68
2022-11-22T22:23:40.379Z,9.20
2022-11-22T22:26:09.490Z,11.70
2022-11-22T22:28:37.902Z,9.68
2022-11-22T22:31:09.998Z,7.45
2022-11-22T22:33:38.987Z,9.48
2022-11-22T22:36:06.862Z,8.55
2022-11-22T22:38:34.249Z,9.50
2022-11-22T22:41:03.075Z,9.48
2022-11-22T22:43:32.370Z,6.28
2022-11-22T22:46:11.213Z,7.60
2022-11-22T22:48:37.908Z,12.73
2022-11-22T22:51:21.922Z,8.38
2022-11-22T22:53:49.179Z,8.55
2022-11-22T22:56:18.320Z,10.38
2022-11-22T22:58:45.376Z,8.40
2022-11-22T23:01:20.407Z,9.00
2022-11-22T23:03:53.539Z,9.48
2022-11-22T23:06:22.025Z,8.48
2022-11-22T23:08:50.554Z,9.48
2022-11-22T23:11:19.998Z,6.60
2022-11-22T23:13:46.691Z,6.30
2022-11-22T23:16:14.767Z,8.27
2022-11-22T23:18:43.396Z,7.10
2022-11-22T23:21:14.841Z,9.15
2022-11-22T23:23:41.440Z,8.03
2022-11-22T23:26:10.321Z,10.32
2022-11-22T23:28:37.672Z,9.25
2022-11-22T23:31:10.052Z,11.30
2022-11-22T23:36:05.590Z,8.02
2022-11-22T23:38:32.658Z,11.82
2022-11-22T23:40:59.358Z,12.23
2022-11-22T23:43:26.110Z,13.02
2022-11-22T23:45:52.685Z,9.90
2022-11-22T23:48:19.414Z,9.48
2022-11-22T23:50:46.037Z,10.82
2022-11-22T23:53:12.673Z,8.43
2022-11-22T23:55:39.224Z,10.20
2022-11-22T23:58:06.025Z,8.98
